sensor_id;sensor_type;location;lat;lon;timestamp;temperature;humidity
14061;DHT22;7105;43.616;1.434;2023-07-29T00:00:42;24.10;99.90
14061;DHT22;7105;43.616;1.434;2023-07-29T00:03:08;23.90;99.90
14061;DHT22;7105;43.616;1.434;2023-07-29T00:05:34;23.90;99.90
14061;DHT22;7105;43.616;1.434;2023-07-29T00:08:00;24.00;99.90
14061;DHT22;7105;43.616;1.434;2023-07-29T00:10:26;24.10;99.90
14061;DHT22;7105;43.616;1.434;2023-07-29T00:12:52;24.00;99.90
14061;DHT22;7105;43.616;1.434;2023-07-29T00:15:18;24.10;99.90
14061;DHT22;7105;43.616;1.434;2023-07-29T00:17:44;24.00;99.90
14061;DHT22;7105;43.616;1.434;2023-07-29T00:20:09;23.90;99.90
14061;DHT22;7105;43.616;1.434;2023-07-29T00:22:35;23.80;99.90
14061;DHT22;7105;43.616;1.434;2023-07-29T00:25:01;23.70;99.90
14061;DHT22;7105;43.616;1.434;2023-07-29T00:27:27;23.70;99.90
14061;DHT22;7105;43.616;1.434;2023-07-29T00:29:52;23.70;99.90
14061;DHT22;7105;43.616;1.434;2023-07-29T00:32:18;23.70;99.90
14061;DHT22;7105;43.616;1.434;2023-07-29T00:34:44;23.60;99.90
14061;DHT22;7105;43.616;1.434;2023-07-29T00:37:10;23.60;99.90
14061;DHT22;7105;43.616;1.434;2023-07-29T00:39:36;23.50;99.90
14061;DHT22;7105;43.616;1.434;2023-07-29T00:42:05;23.60;99.90
14061;DHT22;7105;43.616;1.434;2023-07-29T00:44:31;23.40;99.90
14061;DHT22;7105;43.616;1.434;2023-07-29T00:46:57;23.40;99.90
14061;DHT22;7105;43.616;1.434;2023-07-29T00:49:24;23.40;99.90
14061;DHT22;7105;43.616;1.434;2023-07-29T00:51:50;23.40;99.90
14061;DHT22;7105;43.616;1.434;2023-07-29T00:54:15;23.30;99.90
14061;DHT22;7105;43.616;1.434;2023-07-29T00:56:41;23.30;99.90
14061;DHT22;7105;43.616;1.434;2023-07-29T00:59:08;23.40;99.90
14061;DHT22;7105;43.616;1.434;2023-07-29T01:01:34;23.40;99.90
14061;DHT22;7105;43.616;1.434;2023-07-29T01:03:59;23.40;99.90
14061;DHT22;7105;43.616;1.434;2023-07-29T01:06:50;23.40;99.90
14061;DHT22;7105;43.616;1.434;2023-07-29T01:12:11;23.20;99.90
14061;DHT22;7105;43.616;1.434;2023-07-29T01:14:51;23.10;99.90
14061;DHT22;7105;43.616;1.434;2023-07-29T01:17:31;23.20;99.90
14061;DHT22;7105;43.616;1.434;2023-07-29T01:20:09;23.10;99.90
14061;DHT22;7105;43.616;1.434;2023-07-29T01:22:36;23.10;99.90
14061;DHT22;7105;43.616;1.434;2023-07-29T01:25:03;23.10;99.90
14061;DHT22;7105;43.616;1.434;2023-07-29T01:27:29;23.20;99.90
14061;DHT22;7105;43.616;1.434;2023-07-29T01:29:56;23.10;99.90
14061;DHT22;7105;43.616;1.434;2023-07-29T01:35:28;23.00;99.90
14061;DHT22;7105;43.616;1.434;2023-07-29T01:38:05;22.90;99.90
14061;DHT22;7105;43.616;1.434;2023-07-29T01:40:33;22.90;99.90
14061;DHT22;7105;43.616;1.434;2023-07-29T01:42:59;22.70;99.90
14061;DHT22;7105;43.616;1.434;2023-07-29T01:45:25;22.80;99.90
14061;DHT22;7105;43.616;1.434;2023-07-29T01:47:51;22.80;99.90
14061;DHT22;7105;43.616;1.434;2023-07-29T01:50:17;22.70;99.90
14061;DHT22;7105;43.616;1.434;2023-07-29T01:52:43;22.70;99.90
14061;DHT22;7105;43.616;1.434;2023-07-29T01:55:08;22.80;99.90
14061;DHT22;7105;43.616;1.434;2023-07-29T01:57:34;22.80;99.90
14061;DHT22;7105;43.616;1.434;2023-07-29T02:00:00;22.90;99.90
14061;DHT22;7105;43.616;1.434;2023-07-29T02:02:26;22.70;99.90
14061;DHT22;7105;43.616;1.434;2023-07-29T02:04:51;22.70;99.90
14061;DHT22;7105;43.616;1.434;2023-07-29T02:07:21;22.70;99.90
14061;DHT22;7105;43.616;1.434;2023-07-29T02:09:46;22.80;99.90
14061;DHT22;7105;43.616;1.434;2023-07-29T02:12:12;22.60;99.90
14061;DHT22;7105;43.616;1.434;2023-07-29T02:14:38;22.60;99.90
14061;DHT22;7105;43.616;1.434;2023-07-29T02:17:04;22.70;99.90
14061;DHT22;7105;43.616;1.434;2023-07-29T02:19:29;22.70;99.90
14061;DHT22;7105;43.616;1.434;2023-07-29T02:21:55;22.70;99.90
14061;DHT22;7105;43.616;1.434;2023-07-29T02:24:21;22.70;99.90
14061;DHT22;7105;43.616;1.434;2023-07-29T02:26:46;22.70;99.90
14061;DHT22;7105;43.616;1.434;2023-07-29T02:29:12;22.60;99.90
14061;DHT22;7105;43.616;1.434;2023-07-29T02:31:38;22.50;99.90
14061;DHT22;7105;43.616;1.434;2023-07-29T02:34:04;22.50;99.90
14061;DHT22;7105;43.616;1.434;2023-07-29T02:36:29;22.50;99.90
14061;DHT22;7105;43.616;1.434;2023-07-29T02:38:55;22.60;99.90
14061;DHT22;7105;43.616;1.434;2023-07-29T02:41:21;22.60;99.90
14061;DHT22;7105;43.616;1.434;2023-07-29T02:43:50;22.70;99.90
14061;DHT22;7105;43.616;1.434;2023-07-29T02:46:16;22.60;99.90
14061;DHT22;7105;43.616;1.434;2023-07-29T02:48:43;22.50;99.90
14061;DHT22;7105;43.616;1.434;2023-07-29T02:51:09;22.40;99.90
14061;DHT22;7105;43.616;1.434;2023-07-29T02:53:35;22.30;99.90
14061;DHT22;7105;43.616;1.434;2023-07-29T02:56:03;22.30;99.90
14061;DHT22;7105;43.616;1.434;2023-07-29T02:58:29;22.40;99.90
14061;DHT22;7105;43.616;1.434;2023-07-29T03:01:01;22.40;99.90
14061;DHT22;7105;43.616;1.434;2023-07-29T03:03:27;22.30;99.90
14061;DHT22;7105;43.616;1.434;2023-07-29T03:06:07;22.20;99.90
14061;DHT22;7105;43.616;1.434;2023-07-29T03:08:34;22.00;99.90
14061;DHT22;7105;43.616;1.434;2023-07-29T03:11:05;22.00;99.90
14061;DHT22;7105;43.616;1.434;2023-07-29T03:13:32;22.10;99.90
14061;DHT22;7105;43.616;1.434;2023-07-29T03:16:15;22.00;99.90
14061;DHT22;7105;43.616;1.434;2023-07-29T03:18:41;21.90;99.90
14061;DHT22;7105;43.616;1.434;2023-07-29T03:21:08;22.00;99.90
14061;DHT22;7105;43.616;1.434;2023-07-29T03:23:34;21.90;99.90
14061;DHT22;7105;43.616;1.434;2023-07-29T03:26:02;21.90;99.90
14061;DHT22;7105;43.616;1.434;2023-07-29T03:28:32;22.00;99.90
14061;DHT22;7105;43.616;1.434;2023-07-29T03:30:58;21.90;99.90
14061;DHT22;7105;43.616;1.434;2023-07-29T03:33:25;21.80;99.90
14061;DHT22;7105;43.616;1.434;2023-07-29T03:35:51;21.80;99.90
14061;DHT22;7105;43.616;1.434;2023-07-29T03:38:17;21.70;99.90
14061;DHT22;7105;43.616;1.434;2023-07-29T03:40:43;21.70;99.90
14061;DHT22;7105;43.616;1.434;2023-07-29T03:43:09;21.90;99.90
14061;DHT22;7105;43.616;1.434;2023-07-29T03:45:35;21.70;99.90
14061;DHT22;7105;43.616;1.434;2023-07-29T03:48:02;21.70;99.90
14061;DHT22;7105;43.616;1.434;2023-07-29T03:50:29;21.60;99.90
14061;DHT22;7105;43.616;1.434;2023-07-29T03:52:56;21.70;99.90
14061;DHT22;7105;43.616;1.434;2023-07-29T03:55:22;21.80;99.90
14061;DHT22;7105;43.616;1.434;2023-07-29T03:57:47;21.80;99.90
14061;DHT22;7105;43.616;1.434;2023-07-29T04:00:13;22.00;99.90
14061;DHT22;7105;43.616;1.434;2023-07-29T04:02:39;22.00;99.90
14061;DHT22;7105;43.616;1.434;2023-07-29T04:05:05;22.20;99.90
14061;DHT22;7105;43.616;1.434;2023-07-29T04:07:34;22.10;99.90
14061;DHT22;7105;43.616;1.434;2023-07-29T04:10:00;22.00;99.90
14061;DHT22;7105;43.616;1.434;2023-07-29T04:12:26;22.10;99.90
14061;DHT22;7105;43.616;1.434;2023-07-29T04:14:52;22.10;99.90
14061;DHT22;7105;43.616;1.434;2023-07-29T04:17:17;22.20;99.90
14061;DHT22;7105;43.616;1.434;2023-07-29T04:19:43;22.10;99.90
14061;DHT22;7105;43.616;1.434;2023-07-29T04:22:09;22.00;99.90
14061;DHT22;7105;43.616;1.434;2023-07-29T04:24:35;22.00;99.90
14061;DHT22;7105;43.616;1.434;2023-07-29T04:27:00;22.00;99.90
14061;DHT22;7105;43.616;1.434;2023-07-29T04:29:26;22.00;99.90
14061;DHT22;7105;43.616;1.434;2023-07-29T04:31:52;21.90;99.90
14061;DHT22;7105;43.616;1.434;2023-07-29T04:34:18;21.70;99.90
14061;DHT22;7105;43.616;1.434;2023-07-29T04:36:45;21.70;99.90
14061;DHT22;7105;43.616;1.434;2023-07-29T04:39:10;21.90;99.90
14061;DHT22;7105;43.616;1.434;2023-07-29T04:41:36;21.90;99.90
14061;DHT22;7105;43.616;1.434;2023-07-29T04:44:02;21.90;99.90
14061;DHT22;7105;43.616;1.434;2023-07-29T04:46:27;22.00;99.90
14061;DHT22;7105;43.616;1.434;2023-07-29T04:48:53;22.00;99.90
14061;DHT22;7105;43.616;1.434;2023-07-29T04:51:19;21.90;99.90
14061;DHT22;7105;43.616;1.434;2023-07-29T04:53:45;22.00;99.90
14061;DHT22;7105;43.616;1.434;2023-07-29T04:56:10;21.90;99.90
14061;DHT22;7105;43.616;1.434;2023-07-29T04:58:36;21.90;99.90
14061;DHT22;7105;43.616;1.434;2023-07-29T05:01:03;21.90;99.90
14061;DHT22;7105;43.616;1.434;2023-07-29T05:03:29;22.00;99.90
14061;DHT22;7105;43.616;1.434;2023-07-29T05:05:56;22.20;99.90
14061;DHT22;7105;43.616;1.434;2023-07-29T05:08:22;22.80;99.90
14061;DHT22;7105;43.616;1.434;2023-07-29T05:10:52;22.90;99.90
14061;DHT22;7105;43.616;1.434;2023-07-29T05:13:18;23.20;99.90
14061;DHT22;7105;43.616;1.434;2023-07-29T05:15:44;23.90;99.90
14061;DHT22;7105;43.616;1.434;2023-07-29T05:18:10;24.70;99.90
14061;DHT22;7105;43.616;1.434;2023-07-29T05:20:36;25.50;99.90
14061;DHT22;7105;43.616;1.434;2023-07-29T05:23:02;25.90;99.90
14061;DHT22;7105;43.616;1.434;2023-07-29T05:25:29;26.40;99.90
14061;DHT22;7105;43.616;1.434;2023-07-29T05:27:55;26.80;99.90
14061;DHT22;7105;43.616;1.434;2023-07-29T05:30:20;27.20;99.90
14061;DHT22;7105;43.616;1.434;2023-07-29T05:32:46;27.70;99.90
14061;DHT22;7105;43.616;1.434;2023-07-29T05:35:12;27.50;99.90
14061;DHT22;7105;43.616;1.434;2023-07-29T05:37:38;28.10;99.90
14061;DHT22;7105;43.616;1.434;2023-07-29T05:40:10;28.20;99.90
14061;DHT22;7105;43.616;1.434;2023-07-29T05:42:35;27.70;99.90
14061;DHT22;7105;43.616;1.434;2023-07-29T05:45:02;28.20;99.90
14061;DHT22;7105;43.616;1.434;2023-07-29T05:47:27;28.60;99.90
14061;DHT22;7105;43.616;1.434;2023-07-29T05:49:53;28.50;99.90
14061;DHT22;7105;43.616;1.434;2023-07-29T05:52:19;29.40;99.90
14061;DHT22;7105;43.616;1.434;2023-07-29T05:54:45;29.60;99.90
14061;DHT22;7105;43.616;1.434;2023-07-29T05:57:11;29.00;99.90
14061;DHT22;7105;43.616;1.434;2023-07-29T05:59:38;30.00;99.90
14061;DHT22;7105;43.616;1.434;2023-07-29T06:02:04;30.10;99.90
14061;DHT22;7105;43.616;1.434;2023-07-29T06:04:29;30.20;99.90
14061;DHT22;7105;43.616;1.434;2023-07-29T06:06:55;30.70;99.90
14061;DHT22;7105;43.616;1.434;2023-07-29T06:09:22;31.40;99.90
14061;DHT22;7105;43.616;1.434;2023-07-29T06:11:47;32.00;99.90
14061;DHT22;7105;43.616;1.434;2023-07-29T06:14:13;32.60;99.90
14061;DHT22;7105;43.616;1.434;2023-07-29T06:16:39;32.90;99.90
14061;DHT22;7105;43.616;1.434;2023-07-29T06:19:04;33.50;99.90
14061;DHT22;7105;43.616;1.434;2023-07-29T06:21:30;33.10;99.90
14061;DHT22;7105;43.616;1.434;2023-07-29T06:23:56;32.60;99.90
14061;DHT22;7105;43.616;1.434;2023-07-29T06:26:22;32.70;99.90
14061;DHT22;7105;43.616;1.434;2023-07-29T06:28:47;33.30;99.90
14061;DHT22;7105;43.616;1.434;2023-07-29T06:31:13;34.20;99.90
14061;DHT22;7105;43.616;1.434;2023-07-29T06:33:39;33.30;99.90
14061;DHT22;7105;43.616;1.434;2023-07-29T06:36:05;33.50;99.90
14061;DHT22;7105;43.616;1.434;2023-07-29T06:38:31;34.50;99.90
14061;DHT22;7105;43.616;1.434;2023-07-29T06:40:56;32.80;99.90
14061;DHT22;7105;43.616;1.434;2023-07-29T06:43:22;32.40;99.90
14061;DHT22;7105;43.616;1.434;2023-07-29T06:45:48;34.10;99.90
14061;DHT22;7105;43.616;1.434;2023-07-29T06:48:14;35.20;99.90
14061;DHT22;7105;43.616;1.434;2023-07-29T06:50:39;35.80;99.90
14061;DHT22;7105;43.616;1.434;2023-07-29T06:53:05;36.70;99.90
14061;DHT22;7105;43.616;1.434;2023-07-29T06:55:31;35.00;99.90
14061;DHT22;7105;43.616;1.434;2023-07-29T06:57:57;35.80;99.90
14061;DHT22;7105;43.616;1.434;2023-07-29T07:00:23;36.10;99.90
14061;DHT22;7105;43.616;1.434;2023-07-29T07:02:48;36.60;99.90
14061;DHT22;7105;43.616;1.434;2023-07-29T07:05:14;37.60;99.90
14061;DHT22;7105;43.616;1.434;2023-07-29T07:07:40;38.10;99.90
14061;DHT22;7105;43.616;1.434;2023-07-29T07:10:06;36.90;99.90
14061;DHT22;7105;43.616;1.434;2023-07-29T07:12:32;38.30;99.90
14061;DHT22;7105;43.616;1.434;2023-07-29T07:14:58;38.80;99.90
14061;DHT22;7105;43.616;1.434;2023-07-29T07:17:23;38.40;99.90
14061;DHT22;7105;43.616;1.434;2023-07-29T07:19:49;39.00;99.90
14061;DHT22;7105;43.616;1.434;2023-07-29T07:22:16;38.90;99.90
14061;DHT22;7105;43.616;1.434;2023-07-29T07:24:42;39.20;99.90
14061;DHT22;7105;43.616;1.434;2023-07-29T07:27:08;40.60;99.90
14061;DHT22;7105;43.616;1.434;2023-07-29T07:29:33;39.80;99.90
14061;DHT22;7105;43.616;1.434;2023-07-29T07:31:59;38.70;99.90
14061;DHT22;7105;43.616;1.434;2023-07-29T07:34:25;37.00;99.90
14061;DHT22;7105;43.616;1.434;2023-07-29T07:36:50;37.10;99.90
14061;DHT22;7105;43.616;1.434;2023-07-29T07:39:16;39.50;99.90
14061;DHT22;7105;43.616;1.434;2023-07-29T07:41:44;40.50;99.90
14061;DHT22;7105;43.616;1.434;2023-07-29T07:44:10;40.10;99.90
14061;DHT22;7105;43.616;1.434;2023-07-29T07:46:38;40.20;99.90
14061;DHT22;7105;43.616;1.434;2023-07-29T07:49:03;39.50;99.90
14061;DHT22;7105;43.616;1.434;2023-07-29T07:51:29;40.20;99.90
14061;DHT22;7105;43.616;1.434;2023-07-29T07:53:55;40.20;99.90
14061;DHT22;7105;43.616;1.434;2023-07-29T07:56:21;41.30;99.90
14061;DHT22;7105;43.616;1.434;2023-07-29T07:58:46;41.00;99.90
14061;DHT22;7105;43.616;1.434;2023-07-29T08:01:12;40.80;99.90
14061;DHT22;7105;43.616;1.434;2023-07-29T08:03:38;41.20;99.90
14061;DHT22;7105;43.616;1.434;2023-07-29T08:06:04;41.30;99.90
14061;DHT22;7105;43.616;1.434;2023-07-29T08:08:30;39.40;99.90
14061;DHT22;7105;43.616;1.434;2023-07-29T08:10:56;39.70;99.90
14061;DHT22;7105;43.616;1.434;2023-07-29T08:13:23;40.20;99.90
14061;DHT22;7105;43.616;1.434;2023-07-29T08:15:52;40.00;99.90
14061;DHT22;7105;43.616;1.434;2023-07-29T08:18:18;40.00;99.90
14061;DHT22;7105;43.616;1.434;2023-07-29T08:20:54;40.80;99.90
14061;DHT22;7105;43.616;1.434;2023-07-29T08:23:21;39.50;99.90
14061;DHT22;7105;43.616;1.434;2023-07-29T08:25:58;39.50;99.90
14061;DHT22;7105;43.616;1.434;2023-07-29T08:28:32;41.60;99.90
14061;DHT22;7105;43.616;1.434;2023-07-29T08:30:58;40.30;99.90
14061;DHT22;7105;43.616;1.434;2023-07-29T08:33:24;39.60;99.90
14061;DHT22;7105;43.616;1.434;2023-07-29T08:35:50;40.70;99.90
14061;DHT22;7105;43.616;1.434;2023-07-29T08:38:16;40.40;99.90
14061;DHT22;7105;43.616;1.434;2023-07-29T08:43:41;40.60;99.90
14061;DHT22;7105;43.616;1.434;2023-07-29T08:46:08;40.00;99.90
14061;DHT22;7105;43.616;1.434;2023-07-29T08:51:03;41.10;99.90
14061;DHT22;7105;43.616;1.434;2023-07-29T08:53:31;42.10;99.90
14061;DHT22;7105;43.616;1.434;2023-07-29T08:55:57;41.00;99.90
14061;DHT22;7105;43.616;1.434;2023-07-29T08:58:24;40.30;99.90
14061;DHT22;7105;43.616;1.434;2023-07-29T09:00:51;39.20;99.90
14061;DHT22;7105;43.616;1.434;2023-07-29T09:03:20;39.90;99.90
14061;DHT22;7105;43.616;1.434;2023-07-29T09:05:46;40.30;99.90
14061;DHT22;7105;43.616;1.434;2023-07-29T09:08:13;40.20;99.90
14061;DHT22;7105;43.616;1.434;2023-07-29T09:10:39;39.80;99.90
14061;DHT22;7105;43.616;1.434;2023-07-29T09:13:05;35.20;99.90
14061;DHT22;7105;43.616;1.434;2023-07-29T09:15:33;33.30;99.90
14061;DHT22;7105;43.616;1.434;2023-07-29T09:17:59;33.70;99.90
14061;DHT22;7105;43.616;1.434;2023-07-29T09:20:26;33.30;99.90
14061;DHT22;7105;43.616;1.434;2023-07-29T09:22:54;33.20;99.90
14061;DHT22;7105;43.616;1.434;2023-07-29T09:25:27;32.40;99.90
14061;DHT22;7105;43.616;1.434;2023-07-29T09:27:59;32.70;99.90
14061;DHT22;7105;43.616;1.434;2023-07-29T09:30:26;33.00;99.90
14061;DHT22;7105;43.616;1.434;2023-07-29T09:32:58;33.60;99.90
14061;DHT22;7105;43.616;1.434;2023-07-29T09:35:26;32.70;99.90
14061;DHT22;7105;43.616;1.434;2023-07-29T09:37:53;32.40;99.90
14061;DHT22;7105;43.616;1.434;2023-07-29T09:40:18;31.20;99.90
14061;DHT22;7105;43.616;1.434;2023-07-29T09:42:52;31.10;99.90
14061;DHT22;7105;43.616;1.434;2023-07-29T09:45:25;31.40;99.90
14061;DHT22;7105;43.616;1.434;2023-07-29T09:47:52;30.90;99.90
14061;DHT22;7105;43.616;1.434;2023-07-29T09:50:18;30.60;99.90
14061;DHT22;7105;43.616;1.434;2023-07-29T09:52:44;30.60;99.90
14061;DHT22;7105;43.616;1.434;2023-07-29T09:55:12;30.70;99.90
14061;DHT22;7105;43.616;1.434;2023-07-29T09:57:40;30.80;99.90
14061;DHT22;7105;43.616;1.434;2023-07-29T10:00:06;31.70;99.90
14061;DHT22;7105;43.616;1.434;2023-07-29T10:02:37;31.20;99.90
14061;DHT22;7105;43.616;1.434;2023-07-29T10:05:03;30.90;99.90
14061;DHT22;7105;43.616;1.434;2023-07-29T10:07:30;30.90;99.90
14061;DHT22;7105;43.616;1.434;2023-07-29T10:09:57;30.80;99.90
14061;DHT22;7105;43.616;1.434;2023-07-29T10:12:24;30.60;99.90
14061;DHT22;7105;43.616;1.434;2023-07-29T10:14:50;30.40;99.90
14061;DHT22;7105;43.616;1.434;2023-07-29T10:17:16;30.20;99.90
14061;DHT22;7105;43.616;1.434;2023-07-29T10:19:44;30.40;99.90
14061;DHT22;7105;43.616;1.434;2023-07-29T10:22:11;30.70;99.90
14061;DHT22;7105;43.616;1.434;2023-07-29T10:24:38;30.60;99.90
14061;DHT22;7105;43.616;1.434;2023-07-29T10:27:07;31.00;99.90
14061;DHT22;7105;43.616;1.434;2023-07-29T10:29:39;31.30;99.90
14061;DHT22;7105;43.616;1.434;2023-07-29T10:32:07;31.70;99.90
14061;DHT22;7105;43.616;1.434;2023-07-29T10:34:34;31.50;99.90
14061;DHT22;7105;43.616;1.434;2023-07-29T10:37:02;31.40;99.90
14061;DHT22;7105;43.616;1.434;2023-07-29T10:39:27;31.60;99.90
14061;DHT22;7105;43.616;1.434;2023-07-29T10:42:02;31.20;99.90
14061;DHT22;7105;43.616;1.434;2023-07-29T10:47:14;31.50;99.90
14061;DHT22;7105;43.616;1.434;2023-07-29T10:49:41;30.90;99.90
14061;DHT22;7105;43.616;1.434;2023-07-29T10:52:07;30.90;99.90
14061;DHT22;7105;43.616;1.434;2023-07-29T10:54:45;31.40;99.90
14061;DHT22;7105;43.616;1.434;2023-07-29T10:57:18;31.50;99.90
14061;DHT22;7105;43.616;1.434;2023-07-29T10:59:56;31.40;99.90
14061;DHT22;7105;43.616;1.434;2023-07-29T11:02:29;30.90;99.90
14061;DHT22;7105;43.616;1.434;2023-07-29T11:04:55;31.20;99.90
14061;DHT22;7105;43.616;1.434;2023-07-29T11:07:22;31.20;99.90
14061;DHT22;7105;43.616;1.434;2023-07-29T11:09:59;31.30;99.90
14061;DHT22;7105;43.616;1.434;2023-07-29T11:17:59;31.20;99.90
14061;DHT22;7105;43.616;1.434;2023-07-29T11:20:30;31.10;99.90
14061;DHT22;7105;43.616;1.434;2023-07-29T11:22:57;31.00;99.90
14061;DHT22;7105;43.616;1.434;2023-07-29T11:25:24;31.00;99.90
14061;DHT22;7105;43.616;1.434;2023-07-29T11:27:55;30.70;99.90
14061;DHT22;7105;43.616;1.434;2023-07-29T11:30:21;30.40;99.90
14061;DHT22;7105;43.616;1.434;2023-07-29T11:32:48;30.40;99.90
14061;DHT22;7105;43.616;1.434;2023-07-29T11:35:18;31.10;99.90
14061;DHT22;7105;43.616;1.434;2023-07-29T11:37:52;31.00;99.90
14061;DHT22;7105;43.616;1.434;2023-07-29T11:40:22;30.80;99.90
14061;DHT22;7105;43.616;1.434;2023-07-29T11:42:49;30.70;99.90
14061;DHT22;7105;43.616;1.434;2023-07-29T11:45:19;30.80;99.90
14061;DHT22;7105;43.616;1.434;2023-07-29T11:47:45;31.00;99.90
14061;DHT22;7105;43.616;1.434;2023-07-29T11:50:13;31.00;99.90
14061;DHT22;7105;43.616;1.434;2023-07-29T11:52:45;31.00;99.90
14061;DHT22;7105;43.616;1.434;2023-07-29T11:55:13;31.20;99.90
14061;DHT22;7105;43.616;1.434;2023-07-29T11:57:39;31.20;99.90
14061;DHT22;7105;43.616;1.434;2023-07-29T12:00:08;30.80;99.90
14061;DHT22;7105;43.616;1.434;2023-07-29T12:02:38;30.80;99.90
14061;DHT22;7105;43.616;1.434;2023-07-29T12:05:05;31.10;99.90
14061;DHT22;7105;43.616;1.434;2023-07-29T12:07:32;31.40;99.90
14061;DHT22;7105;43.616;1.434;2023-07-29T12:10:02;31.40;99.90
14061;DHT22;7105;43.616;1.434;2023-07-29T12:12:29;31.40;99.90
14061;DHT22;7105;43.616;1.434;2023-07-29T12:14:55;31.40;99.90
14061;DHT22;7105;43.616;1.434;2023-07-29T12:17:20;31.40;99.90
14061;DHT22;7105;43.616;1.434;2023-07-29T12:19:47;31.20;99.90
14061;DHT22;7105;43.616;1.434;2023-07-29T12:22:18;31.20;99.90
14061;DHT22;7105;43.616;1.434;2023-07-29T12:24:44;31.50;99.90
14061;DHT22;7105;43.616;1.434;2023-07-29T12:27:12;31.50;99.90
14061;DHT22;7105;43.616;1.434;2023-07-29T12:29:42;31.10;99.90
14061;DHT22;7105;43.616;1.434;2023-07-29T12:32:08;31.40;99.90
14061;DHT22;7105;43.616;1.434;2023-07-29T12:34:35;31.00;99.90
14061;DHT22;7105;43.616;1.434;2023-07-29T12:37:03;31.00;99.90
14061;DHT22;7105;43.616;1.434;2023-07-29T12:39:31;31.40;99.90
14061;DHT22;7105;43.616;1.434;2023-07-29T12:41:59;31.60;99.90
14061;DHT22;7105;43.616;1.434;2023-07-29T12:44:33;31.50;99.90
14061;DHT22;7105;43.616;1.434;2023-07-29T12:47:00;31.60;99.90
14061;DHT22;7105;43.616;1.434;2023-07-29T12:49:27;31.70;99.90
14061;DHT22;7105;43.616;1.434;2023-07-29T12:51:55;31.90;99.90
14061;DHT22;7105;43.616;1.434;2023-07-29T12:54:21;32.00;99.90
14061;DHT22;7105;43.616;1.434;2023-07-29T12:56:46;31.90;99.90
14061;DHT22;7105;43.616;1.434;2023-07-29T12:59:12;32.10;99.90
14061;DHT22;7105;43.616;1.434;2023-07-29T13:01:38;32.10;99.90
14061;DHT22;7105;43.616;1.434;2023-07-29T13:04:04;32.00;99.90
14061;DHT22;7105;43.616;1.434;2023-07-29T13:06:29;32.20;99.90
14061;DHT22;7105;43.616;1.434;2023-07-29T13:08:55;32.40;99.90
14061;DHT22;7105;43.616;1.434;2023-07-29T13:11:21;32.40;99.90
14061;DHT22;7105;43.616;1.434;2023-07-29T13:13:46;32.40;99.90
14061;DHT22;7105;43.616;1.434;2023-07-29T13:16:12;32.60;99.90
14061;DHT22;7105;43.616;1.434;2023-07-29T13:18:38;32.90;99.90
14061;DHT22;7105;43.616;1.434;2023-07-29T13:21:05;32.40;99.90
14061;DHT22;7105;43.616;1.434;2023-07-29T13:23:30;32.40;99.90
14061;DHT22;7105;43.616;1.434;2023-07-29T13:26:00;32.60;99.90
14061;DHT22;7105;43.616;1.434;2023-07-29T13:28:25;32.60;99.90
14061;DHT22;7105;43.616;1.434;2023-07-29T13:30:51;32.50;99.90
14061;DHT22;7105;43.616;1.434;2023-07-29T13:33:16;32.70;99.90
14061;DHT22;7105;43.616;1.434;2023-07-29T13:35:42;32.70;99.90
14061;DHT22;7105;43.616;1.434;2023-07-29T13:38:08;32.60;99.90
14061;DHT22;7105;43.616;1.434;2023-07-29T13:40:34;32.10;99.90
14061;DHT22;7105;43.616;1.434;2023-07-29T13:43:00;31.90;99.90
14061;DHT22;7105;43.616;1.434;2023-07-29T13:45:25;31.80;99.90
14061;DHT22;7105;43.616;1.434;2023-07-29T13:47:51;32.20;99.90
14061;DHT22;7105;43.616;1.434;2023-07-29T13:50:17;32.50;99.90
14061;DHT22;7105;43.616;1.434;2023-07-29T13:52:44;32.40;99.90
14061;DHT22;7105;43.616;1.434;2023-07-29T13:55:09;32.40;99.90
14061;DHT22;7105;43.616;1.434;2023-07-29T13:57:36;32.50;99.90
14061;DHT22;7105;43.616;1.434;2023-07-29T14:00:02;32.40;99.90
14061;DHT22;7105;43.616;1.434;2023-07-29T14:02:29;32.50;99.90
14061;DHT22;7105;43.616;1.434;2023-07-29T14:04:56;32.30;99.90
14061;DHT22;7105;43.616;1.434;2023-07-29T14:07:22;32.10;99.90
14061;DHT22;7105;43.616;1.434;2023-07-29T14:09:47;32.10;99.90
14061;DHT22;7105;43.616;1.434;2023-07-29T14:12:13;32.00;99.90
14061;DHT22;7105;43.616;1.434;2023-07-29T14:14:41;31.80;99.90
14061;DHT22;7105;43.616;1.434;2023-07-29T14:17:07;31.70;99.90
14061;DHT22;7105;43.616;1.434;2023-07-29T14:19:34;31.90;99.90
14061;DHT22;7105;43.616;1.434;2023-07-29T14:22:00;31.90;99.90
14061;DHT22;7105;43.616;1.434;2023-07-29T14:24:26;32.00;99.90
14061;DHT22;7105;43.616;1.434;2023-07-29T14:26:52;32.10;99.90
14061;DHT22;7105;43.616;1.434;2023-07-29T14:29:17;32.00;99.90
14061;DHT22;7105;43.616;1.434;2023-07-29T14:31:43;31.80;99.90
14061;DHT22;7105;43.616;1.434;2023-07-29T14:34:09;31.90;99.90
14061;DHT22;7105;43.616;1.434;2023-07-29T14:36:35;32.10;99.90
14061;DHT22;7105;43.616;1.434;2023-07-29T14:39:02;31.90;99.90
14061;DHT22;7105;43.616;1.434;2023-07-29T14:41:30;31.90;99.90
14061;DHT22;7105;43.616;1.434;2023-07-29T14:43:56;32.10;99.90
14061;DHT22;7105;43.616;1.434;2023-07-29T14:46:22;32.30;99.90
14061;DHT22;7105;43.616;1.434;2023-07-29T14:48:47;32.40;99.90
14061;DHT22;7105;43.616;1.434;2023-07-29T14:51:13;32.50;99.90
14061;DHT22;7105;43.616;1.434;2023-07-29T14:53:39;32.50;99.90
14061;DHT22;7105;43.616;1.434;2023-07-29T14:56:05;32.10;99.90
14061;DHT22;7105;43.616;1.434;2023-07-29T14:58:31;32.10;99.90
14061;DHT22;7105;43.616;1.434;2023-07-29T15:00:56;32.30;99.90
14061;DHT22;7105;43.616;1.434;2023-07-29T15:03:23;32.30;99.90
14061;DHT22;7105;43.616;1.434;2023-07-29T15:05:49;31.70;99.90
14061;DHT22;7105;43.616;1.434;2023-07-29T15:08:15;31.90;99.90
14061;DHT22;7105;43.616;1.434;2023-07-29T15:10:44;31.80;99.90
14061;DHT22;7105;43.616;1.434;2023-07-29T15:13:10;32.10;99.90
14061;DHT22;7105;43.616;1.434;2023-07-29T15:15:36;32.40;99.90
14061;DHT22;7105;43.616;1.434;2023-07-29T15:18:01;32.10;99.90
14061;DHT22;7105;43.616;1.434;2023-07-29T15:20:27;32.10;99.90
14061;DHT22;7105;43.616;1.434;2023-07-29T15:22:52;32.30;99.90
14061;DHT22;7105;43.616;1.434;2023-07-29T15:25:18;32.10;99.90
14061;DHT22;7105;43.616;1.434;2023-07-29T15:27:44;32.00;99.90
14061;DHT22;7105;43.616;1.434;2023-07-29T15:30:09;31.40;99.90
14061;DHT22;7105;43.616;1.434;2023-07-29T15:32:37;31.40;99.90
14061;DHT22;7105;43.616;1.434;2023-07-29T15:35:03;31.50;99.90
14061;DHT22;7105;43.616;1.434;2023-07-29T15:37:29;31.50;99.90
14061;DHT22;7105;43.616;1.434;2023-07-29T15:39:54;31.40;99.90
14061;DHT22;7105;43.616;1.434;2023-07-29T15:42:20;31.40;99.90
14061;DHT22;7105;43.616;1.434;2023-07-29T15:44:46;31.40;99.90
14061;DHT22;7105;43.616;1.434;2023-07-29T15:47:11;31.40;99.90
14061;DHT22;7105;43.616;1.434;2023-07-29T15:49:41;31.60;99.90
14061;DHT22;7105;43.616;1.434;2023-07-29T15:52:07;31.20;99.90
14061;DHT22;7105;43.616;1.434;2023-07-29T15:54:34;30.80;99.90
14061;DHT22;7105;43.616;1.434;2023-07-29T15:56:59;30.50;99.90
14061;DHT22;7105;43.616;1.434;2023-07-29T15:59:25;30.50;99.90
14061;DHT22;7105;43.616;1.434;2023-07-29T16:01:51;30.30;99.90